createdAt,value
2023-03-19T00:00:44.809Z,100948.63
2023-03-19T00:03:17.490Z,100956.44
2023-03-19T00:05:54.054Z,100958.78
2023-03-19T00:08:26.988Z,100956.03
2023-03-19T00:10:59.519Z,100954.84
2023-03-19T00:13:33.580Z,100955.59
2023-03-19T00:16:06.919Z,100958.34
2023-03-19T00:18:39.648Z,100965.81
2023-03-19T00:21:12.341Z,100966.66
2023-03-19T00:23:45.058Z,100968.97
2023-03-19T00:26:17.726Z,100977.22
2023-03-19T00:28:52.052Z,100968.13
2023-03-19T00:31:25.632Z,100974.81
2023-03-19T00:33:58.992Z,100975.13
2023-03-19T00:36:31.645Z,100974.34
2023-03-19T00:39:04.557Z,100970.75
2023-03-19T00:41:37.887Z,100974.28
2023-03-19T00:44:11.845Z,100978.97
2023-03-19T00:46:44.616Z,100976.59
2023-03-19T00:49:17.815Z,100984.41
2023-03-19T00:51:50.889Z,100984.81
2023-03-19T00:54:23.913Z,100989.09
2023-03-19T00:56:56.872Z,100989.88
2023-03-19T00:59:31.030Z,100991.47
2023-03-19T01:02:04.307Z,100989.50
2023-03-19T01:04:37.358Z,100986.28
2023-03-19T01:07:10.134Z,100989.09
2023-03-19T01:09:43.066Z,100981.19
2023-03-19T01:12:15.607Z,100984.19
2023-03-19T01:14:49.717Z,100989.03
2023-03-19T01:17:22.942Z,100994.81
2023-03-19T01:19:56.380Z,100997.22
2023-03-19T01:22:29.311Z,100989.69
2023-03-19T01:25:05.816Z,100989.25
2023-03-19T01:27:38.458Z,100984.91
2023-03-19T01:30:14.371Z,100982.56
2023-03-19T01:33:07.385Z,100979.00
2023-03-19T01:35:46.617Z,100985.56
2023-03-19T01:38:19.710Z,100984.75
2023-03-19T01:40:53.268Z,100987.94
2023-03-19T01:43:27.975Z,100991.75
2023-03-19T01:46:08.379Z,100981.50
2023-03-19T01:48:59.863Z,100984.34
2023-03-19T01:51:36.858Z,100982.25
2023-03-19T01:54:31.188Z,100977.59
2023-03-19T01:57:33.390Z,100979.00
2023-03-19T02:00:29.282Z,100990.34
2023-03-19T02:03:04.724Z,100987.97
2023-03-19T02:05:57.554Z,100994.69
2023-03-19T02:08:31.877Z,100993.81
2023-03-19T02:11:06.413Z,100988.25
2023-03-19T02:13:39.989Z,100997.66
2023-03-19T02:16:13.015Z,100986.66
2023-03-19T02:18:48.832Z,100990.47
2023-03-19T02:21:22.597Z,100993.75
2023-03-19T02:24:04.237Z,100996.97
2023-03-19T02:26:54.951Z,100993.41
2023-03-19T02:29:27.649Z,100989.09
2023-03-19T02:32:03.969Z,100990.22
2023-03-19T02:34:39.250Z,100985.41
2023-03-19T02:37:17.514Z,100982.44
2023-03-19T02:39:58.713Z,100993.72
2023-03-19T02:42:32.799Z,101001.94
2023-03-19T02:45:07.233Z,100993.66
2023-03-19T02:47:40.207Z,100990.13
2023-03-19T02:50:13.397Z,100998.44
2023-03-19T02:52:46.341Z,100996.78
2023-03-19T02:55:21.380Z,100992.44
2023-03-19T02:57:56.033Z,100987.38
2023-03-19T03:00:28.776Z,100995.97
2023-03-19T03:03:02.808Z,100997.13
2023-03-19T03:05:36.697Z,100997.53
2023-03-19T03:08:09.396Z,100993.63
2023-03-19T03:10:42.208Z,100991.63
2023-03-19T03:13:16.295Z,101001.44
2023-03-19T03:15:49.279Z,101000.66
2023-03-19T03:18:22.131Z,101002.63
2023-03-19T03:20:55.037Z,101005.38
2023-03-19T03:23:27.687Z,101006.50
2023-03-19T03:26:00.624Z,101004.50
2023-03-19T03:28:35.290Z,101004.59
2023-03-19T03:31:08.950Z,101001.00
2023-03-19T03:33:42.050Z,100988.88
2023-03-19T03:36:15.180Z,100991.88
2023-03-19T03:38:47.935Z,100990.41
2023-03-19T03:41:21.453Z,100997.44
2023-03-19T03:43:55.565Z,101001.69
2023-03-19T03:46:28.608Z,101016.97
2023-03-19T03:49:01.363Z,101010.00
2023-03-19T03:51:34.573Z,101015.44
2023-03-19T03:54:08.080Z,101016.25
2023-03-19T03:56:41.025Z,101013.53
2023-03-19T03:59:15.281Z,101012.25
2023-03-19T04:01:48.319Z,101017.38
2023-03-19T04:04:21.096Z,101016.94
2023-03-19T04:06:53.996Z,101023.22
2023-03-19T04:09:52.974Z,101012.66
2023-03-19T04:12:26.265Z,101015.41
2023-03-19T04:15:00.643Z,101013.72
2023-03-19T04:17:33.853Z,101007.47
2023-03-19T04:20:07.677Z,101012.97
2023-03-19T04:22:40.481Z,101010.91
2023-03-19T04:25:13.339Z,101019.16
2023-03-19T04:27:46.907Z,101023.94
2023-03-19T04:30:21.252Z,101015.34
2023-03-19T04:32:54.072Z,101024.41
2023-03-19T04:35:27.170Z,101029.91
2023-03-19T04:38:00.034Z,101037.28
2023-03-19T04:40:33.221Z,101043.94
2023-03-19T04:43:06.242Z,101040.50
2023-03-19T04:45:41.805Z,101038.16
2023-03-19T04:48:14.505Z,101050.13
2023-03-19T04:50:51.780Z,101052.56
2023-03-19T04:53:25.265Z,101048.56
2023-03-19T04:55:58.023Z,101052.06
2023-03-19T04:58:30.879Z,101053.53
2023-03-19T05:01:09.245Z,101063.03
2023-03-19T05:04:02.435Z,101059.44
2023-03-19T05:06:37.662Z,101066.94
2023-03-19T05:09:10.908Z,101071.28
2023-03-19T05:11:43.569Z,101077.06
2023-03-19T05:14:21.762Z,101081.41
2023-03-19T05:17:16.272Z,101077.44
2023-03-19T05:20:09.492Z,101085.56
2023-03-19T05:22:44.838Z,101078.53
2023-03-19T05:25:17.578Z,101080.22
2023-03-19T05:27:50.907Z,101085.00
2023-03-19T05:30:27.293Z,101082.25
2023-03-19T05:33:09.753Z,101078.66
2023-03-19T05:35:47.094Z,101081.72
2023-03-19T05:38:28.661Z,101084.13
2023-03-19T05:41:08.971Z,101089.84
2023-03-19T05:43:49.792Z,101091.13
2023-03-19T05:46:37.736Z,101077.81
2023-03-19T05:49:11.853Z,101088.16
2023-03-19T05:51:44.613Z,101083.69
2023-03-19T05:54:17.353Z,101084.84
2023-03-19T05:57:05.197Z,101090.31
2023-03-19T05:59:38.009Z,101094.72
2023-03-19T06:02:29.285Z,101098.25
2023-03-19T06:05:19.170Z,101100.97
2023-03-19T06:07:52.302Z,101105.69
2023-03-19T06:10:43.062Z,101111.13
2023-03-19T06:13:17.063Z,101108.81
2023-03-19T06:16:04.833Z,101112.59
2023-03-19T06:18:41.006Z,101111.94
2023-03-19T06:21:19.613Z,101110.28
2023-03-19T06:23:52.681Z,101120.59
2023-03-19T06:26:32.371Z,101119.53
2023-03-19T06:29:06.171Z,101124.41
2023-03-19T06:31:41.643Z,101129.72
2023-03-19T06:34:27.635Z,101128.06
2023-03-19T06:37:02.020Z,101135.47
2023-03-19T06:39:35.035Z,101131.97
2023-03-19T06:42:08.218Z,101125.69
2023-03-19T06:44:41.213Z,101137.72
2023-03-19T06:47:14.282Z,101146.38
2023-03-19T06:49:47.822Z,101142.03
2023-03-19T06:52:22.339Z,101144.41
2023-03-19T06:54:55.306Z,101151.97
2023-03-19T06:57:27.880Z,101147.22
2023-03-19T07:00:00.907Z,101146.88
2023-03-19T07:02:33.705Z,101148.69
2023-03-19T07:05:07.509Z,101152.84
2023-03-19T07:07:41.714Z,101150.03
2023-03-19T07:10:14.754Z,101150.47
2023-03-19T07:12:47.491Z,101162.81
2023-03-19T07:15:21.507Z,101170.47
2023-03-19T07:17:54.187Z,101181.13
2023-03-19T07:20:27.054Z,101181.56
2023-03-19T07:23:01.264Z,101188.19
2023-03-19T07:25:34.142Z,101184.31
2023-03-19T07:28:06.869Z,101192.56
2023-03-19T07:30:39.912Z,101189.13
2023-03-19T07:33:14.060Z,101192.09
2023-03-19T07:35:46.965Z,101199.91
2023-03-19T07:38:21.154Z,101189.81
2023-03-19T07:41:01.898Z,101197.84
2023-03-19T07:43:35.375Z,101201.34
2023-03-19T07:46:09.312Z,101208.00
2023-03-19T07:48:42.144Z,101209.19
2023-03-19T07:51:14.826Z,101211.16
2023-03-19T07:53:49.037Z,101211.16
2023-03-19T07:56:21.961Z,101210.47
2023-03-19T07:58:54.696Z,101206.16
2023-03-19T08:01:31.356Z,101212.13
2023-03-19T08:04:06.381Z,101216.81
2023-03-19T08:06:41.319Z,101223.03
2023-03-19T08:09:25.536Z,101221.84
2023-03-19T08:11:58.314Z,101230.50
2023-03-19T08:14:31.067Z,101226.41
2023-03-19T08:17:03.815Z,101222.50
2023-03-19T08:19:36.488Z,101233.66
2023-03-19T08:22:09.420Z,101236.41
2023-03-19T08:24:43.628Z,101234.94
2023-03-19T08:27:16.842Z,101249.09
2023-03-19T08:29:49.614Z,101242.09
2023-03-19T08:32:22.566Z,101250.91
2023-03-19T08:34:55.860Z,101257.19
2023-03-19T08:37:28.748Z,101249.34
2023-03-19T08:40:03.011Z,101251.66
2023-03-19T08:42:38.835Z,101261.97
2023-03-19T08:45:13.766Z,101254.16
2023-03-19T08:47:46.624Z,101264.78
2023-03-19T08:50:19.713Z,101267.53
2023-03-19T08:52:52.752Z,101258.94
2023-03-19T08:55:26.716Z,101271.56
2023-03-19T08:57:59.665Z,101269.22
2023-03-19T09:00:32.514Z,101270.50
2023-03-19T09:03:06.952Z,101278.06
2023-03-19T09:05:39.767Z,101280.53
2023-03-19T09:08:12.578Z,101279.72
2023-03-19T09:10:46.762Z,101284.50
2023-03-19T09:13:22.329Z,101281.47
2023-03-19T09:15:55.397Z,101283.91
2023-03-19T09:18:28.324Z,101280.78
2023-03-19T09:21:01.089Z,101291.34
2023-03-19T09:23:34.116Z,101299.63
2023-03-19T09:26:08.192Z,101294.94
2023-03-19T09:28:41.159Z,101301.97
2023-03-19T09:31:13.890Z,101303.13
2023-03-19T09:33:46.729Z,101307.59
2023-03-19T09:36:19.487Z,101309.97
2023-03-19T09:38:52.513Z,101309.66
2023-03-19T09:41:33.991Z,101308.91
2023-03-19T09:44:14.120Z,101319.53
2023-03-19T09:46:53.625Z,101325.81
2023-03-19T09:49:29.774Z,101333.38
2023-03-19T09:52:16.319Z,101335.41
2023-03-19T09:54:52.499Z,101335.03
2023-03-19T09:57:29.785Z,101337.81
2023-03-19T10:00:05.031Z,101332.75
2023-03-19T10:02:41.831Z,101339.47
2023-03-19T10:05:25.131Z,101347.31
2023-03-19T10:08:06.350Z,101347.31
2023-03-19T10:11:04.767Z,101346.94
2023-03-19T10:13:53.862Z,101353.59
2023-03-19T10:16:29.994Z,101362.00
2023-03-19T10:19:05.756Z,101356.00
2023-03-19T10:21:42.241Z,101365.53
2023-03-19T10:24:22.591Z,101364.81
2023-03-19T10:27:00.304Z,101367.91
2023-03-19T10:29:35.632Z,101361.63
2023-03-19T10:32:18.302Z,101367.56
2023-03-19T10:34:53.955Z,101370.31
2023-03-19T10:37:30.020Z,101371.81
2023-03-19T10:40:03.495Z,101366.81
2023-03-19T10:42:46.076Z,101368.88
2023-03-19T10:45:28.574Z,101366.09
2023-03-19T10:48:03.801Z,101376.75
2023-03-19T10:50:39.770Z,101371.31
2023-03-19T10:53:31.442Z,101372.22
2023-03-19T10:56:06.615Z,101369.44
2023-03-19T10:58:40.449Z,101365.22
2023-03-19T11:01:14.636Z,101379.78
2023-03-19T11:03:52.846Z,101387.13
2023-03-19T11:06:28.372Z,101377.94
2023-03-19T11:09:02.593Z,101376.94
2023-03-19T11:11:37.900Z,101374.25
2023-03-19T11:14:19.302Z,101395.06
2023-03-19T11:17:05.398Z,101396.91
2023-03-19T11:19:42.342Z,101387.16
2023-03-19T11:22:21.194Z,101386.09
2023-03-19T11:24:56.396Z,101384.13
2023-03-19T11:27:31.533Z,101386.63
2023-03-19T11:30:15.105Z,101392.34
2023-03-19T11:33:13.825Z,101386.13
2023-03-19T11:35:52.663Z,101398.88
2023-03-19T11:38:38.038Z,101384.03
2023-03-19T11:41:20.463Z,101396.31
2023-03-19T11:43:57.813Z,101393.75
2023-03-19T11:46:41.741Z,101401.72
2023-03-19T11:49:50.777Z,101402.56
2023-03-19T11:52:31.188Z,101399.81
2023-03-19T11:55:23.205Z,101402.56
2023-03-19T11:58:09.325Z,101401.78
2023-03-19T12:00:47.650Z,101404.16
2023-03-19T12:03:53.842Z,101410.56
2023-03-19T12:06:42.077Z,101407.34
2023-03-19T12:09:28.301Z,101409.75
2023-03-19T12:12:13.347Z,101412.09
2023-03-19T12:14:59.380Z,101405.00
2023-03-19T12:18:04.364Z,101411.31
2023-03-19T12:20:47.497Z,101419.63
2023-03-19T12:23:28.666Z,101416.91
2023-03-19T12:26:09.062Z,101407.41
2023-03-19T12:28:45.824Z,101409.75
2023-03-19T12:31:35.621Z,101418.84
2023-03-19T12:34:20.815Z,101425.59
2023-03-19T12:36:58.565Z,101424.00
2023-03-19T12:39:37.525Z,101419.66
2023-03-19T12:42:18.817Z,101427.25
2023-03-19T12:44:56.895Z,101422.94
2023-03-19T12:47:34.819Z,101431.22
2023-03-19T12:50:10.672Z,101435.59
2023-03-19T12:52:46.677Z,101441.53
2023-03-19T12:55:23.611Z,101445.50
2023-03-19T12:58:00.115Z,101454.94
2023-03-19T13:00:35.823Z,101461.28
2023-03-19T13:03:15.690Z,101463.28
2023-03-19T13:05:54.045Z,101469.13
2023-03-19T13:08:34.165Z,101458.50
2023-03-19T13:11:14.883Z,101460.81
2023-03-19T13:13:54.597Z,101464.34
2023-03-19T13:16:34.913Z,101461.97
2023-03-19T13:19:18.077Z,101460.03
2023-03-19T13:21:54.479Z,101460.78
2023-03-19T13:24:30.932Z,101460.38
2023-03-19T13:27:08.278Z,101463.97
2023-03-19T13:29:54.305Z,101466.78
2023-03-19T13:32:37.130Z,101466.38
2023-03-19T13:35:21.581Z,101474.28
2023-03-19T13:37:59.021Z,101481.78
2023-03-19T13:40:44.628Z,101481.00
2023-03-19T13:43:43.996Z,101488.50
2023-03-19T13:46:40.559Z,101497.59
2023-03-19T13:49:28.819Z,101503.53
2023-03-19T13:52:37.834Z,101503.50
2023-03-19T13:55:34.439Z,101518.09
2023-03-19T13:58:38.025Z,101514.88
2023-03-19T14:01:33.797Z,101522.78
2023-03-19T14:04:18.568Z,101518.03
2023-03-19T14:06:54.366Z,101507.28
2023-03-19T14:09:46.108Z,101514.44
2023-03-19T14:12:32.953Z,101515.22
2023-03-19T14:15:18.121Z,101495.06
2023-03-19T14:18:07.187Z,101498.56
2023-03-19T14:21:06.402Z,101505.59
2023-03-19T14:23:47.223Z,101514.63
2023-03-19T14:26:30.615Z,101518.13
2023-03-19T14:29:07.325Z,101524.44
2023-03-19T14:31:46.208Z,101522.44
2023-03-19T14:34:23.179Z,101516.91
2023-03-19T14:37:02.871Z,101531.78
2023-03-19T14:39:40.972Z,101526.22
2023-03-19T14:42:20.870Z,101532.50
2023-03-19T14:45:32.522Z,101521.47
2023-03-19T14:48:21.824Z,101529.34
2023-03-19T14:51:36.017Z,101531.66
2023-03-19T14:54:21.767Z,101533.56
2023-03-19T14:56:57.532Z,101534.34
2023-03-19T14:59:38.124Z,101538.19
2023-03-19T15:02:22.794Z,101547.22
2023-03-19T15:04:58.342Z,101532.19
2023-03-19T15:07:38.459Z,101527.00
2023-03-19T15:10:18.658Z,101528.97
2023-03-19T15:13:19.854Z,101534.84
2023-03-19T15:16:05.341Z,101543.81
2023-03-19T15:18:38.842Z,101541.00
2023-03-19T15:21:11.711Z,101539.78
2023-03-19T15:23:47.818Z,101544.91
2023-03-19T15:26:32.939Z,101539.75
2023-03-19T15:29:05.911Z,101539.72
2023-03-19T15:31:51.796Z,101539.72
2023-03-19T15:34:30.743Z,101546.72
2023-03-19T15:37:07.869Z,101547.47
2023-03-19T15:39:46.175Z,101551.81
2023-03-19T15:42:23.480Z,101556.47
2023-03-19T15:45:03.668Z,101567.91
2023-03-19T15:47:41.237Z,101570.22
2023-03-19T15:50:17.052Z,101574.16
2023-03-19T15:52:55.559Z,101582.78
2023-03-19T15:55:28.750Z,101589.06
2023-03-19T15:58:07.600Z,101592.97
2023-03-19T16:00:42.201Z,101592.19
2023-03-19T16:03:19.819Z,101598.38
2023-03-19T16:05:59.643Z,101601.13
2023-03-19T16:08:32.520Z,101608.63
2023-03-19T16:11:15.511Z,101609.72
2023-03-19T16:13:57.999Z,101617.16
2023-03-19T16:16:32.216Z,101628.91
2023-03-19T16:19:05.243Z,101624.13
2023-03-19T16:21:39.530Z,101624.94
2023-03-19T16:24:23.303Z,101631.97
2023-03-19T16:26:58.347Z,101633.88
2023-03-19T16:29:38.585Z,101641.72
2023-03-19T16:32:20.840Z,101644.38
2023-03-19T16:34:55.452Z,101648.22
2023-03-19T16:37:33.902Z,101645.84
2023-03-19T16:40:40.886Z,101650.91
2023-03-19T16:43:19.561Z,101650.41
2023-03-19T16:46:04.743Z,101653.06
2023-03-19T16:48:37.508Z,101660.50
2023-03-19T16:51:17.863Z,101672.09
2023-03-19T16:53:51.129Z,101674.00
2023-03-19T16:56:23.762Z,101675.59
2023-03-19T16:58:56.552Z,101671.25
2023-03-19T17:01:31.416Z,101680.69
2023-03-19T17:04:11.287Z,101683.72
2023-03-19T17:06:44.155Z,101690.75
2023-03-19T17:09:16.821Z,101690.69
2023-03-19T17:11:49.689Z,101699.34
2023-03-19T17:14:22.829Z,101711.09
2023-03-19T17:16:57.232Z,101703.13
2023-03-19T17:19:35.398Z,101708.16
2023-03-19T17:22:13.194Z,101714.00
2023-03-19T17:24:46.099Z,101719.44
2023-03-19T17:27:18.795Z,101717.78
2023-03-19T17:29:51.530Z,101727.03
2023-03-19T17:32:25.923Z,101728.63
2023-03-19T17:34:58.682Z,101737.47
2023-03-19T17:37:32.283Z,101743.69
2023-03-19T17:40:17.399Z,101741.31
2023-03-19T17:42:51.905Z,101753.53
2023-03-19T17:45:27.684Z,101746.88
2023-03-19T17:48:02.011Z,101752.38
2023-03-19T17:50:35.021Z,101757.81
2023-03-19T17:53:11.736Z,101758.97
2023-03-19T17:55:44.474Z,101753.88
2023-03-19T17:58:19.150Z,101759.69
2023-03-19T18:00:53.133Z,101766.84
2023-03-19T18:03:28.952Z,101761.28
2023-03-19T18:06:06.670Z,101767.41
2023-03-19T18:08:39.459Z,101781.59
2023-03-19T18:11:12.547Z,101771.75
2023-03-19T18:13:45.268Z,101779.13
2023-03-19T18:16:22.566Z,101780.47
2023-03-19T18:19:00.363Z,101783.00
2023-03-19T18:21:33.486Z,101784.09
2023-03-19T18:24:09.104Z,101793.16
2023-03-19T18:26:41.915Z,101790.66
2023-03-19T18:29:16.380Z,101795.53
2023-03-19T18:31:51.117Z,101801.75
2023-03-19T18:34:26.477Z,101810.81
2023-03-19T18:37:00.022Z,101813.47
2023-03-19T18:39:36.331Z,101813.91
2023-03-19T18:42:10.688Z,101814.81
2023-03-19T18:44:44.221Z,101813.03
2023-03-19T18:47:17.192Z,101811.16
2023-03-19T18:49:54.010Z,101814.63
2023-03-19T18:52:26.785Z,101817.63
2023-03-19T18:54:59.592Z,101820.38
2023-03-19T18:57:32.478Z,101818.34
2023-03-19T19:00:07.829Z,101808.75
2023-03-19T19:02:40.618Z,101811.13
2023-03-19T19:05:18.450Z,101814.63
2023-03-19T19:07:51.486Z,101812.22
2023-03-19T19:10:24.582Z,101813.28
2023-03-19T19:12:57.772Z,101809.00
2023-03-19T19:15:33.808Z,101811.06
2023-03-19T19:18:15.817Z,101815.03
2023-03-19T19:20:52.487Z,101817.34
2023-03-19T19:23:27.256Z,101820.97
2023-03-19T19:26:00.117Z,101824.81
2023-03-19T19:28:35.862Z,101824.25
2023-03-19T19:31:23.632Z,101828.69
2023-03-19T19:33:56.842Z,101830.19
2023-03-19T19:36:31.682Z,101842.34
2023-03-19T19:39:04.724Z,101842.69
2023-03-19T19:41:40.584Z,101842.69
2023-03-19T19:44:19.874Z,101852.69
2023-03-19T19:46:54.527Z,101850.38
2023-03-19T19:49:27.208Z,101858.97
2023-03-19T19:52:01.667Z,101861.44
2023-03-19T19:54:37.096Z,101864.00
2023-03-19T19:57:19.348Z,101872.34
2023-03-19T19:59:53.488Z,101876.94
2023-03-19T20:02:28.706Z,101873.75
2023-03-19T20:05:01.487Z,101869.22
2023-03-19T20:07:36.084Z,101875.66
2023-03-19T20:10:09.870Z,101880.66
2023-03-19T20:12:44.911Z,101877.00
2023-03-19T20:15:20.576Z,101877.38
2023-03-19T20:17:54.633Z,101874.16
2023-03-19T20:20:31.349Z,101875.66
2023-03-19T20:23:05.445Z,101874.44
2023-03-19T20:25:38.506Z,101867.88
2023-03-19T20:28:17.286Z,101873.34
2023-03-19T20:30:53.752Z,101874.75
2023-03-19T20:33:27.376Z,101879.09
2023-03-19T20:36:00.578Z,101874.88
2023-03-19T20:38:37.417Z,101869.72
2023-03-19T20:41:20.216Z,101867.00
2023-03-19T20:43:53.898Z,101864.03
2023-03-19T20:46:26.693Z,101869.06
2023-03-19T20:49:01.522Z,101871.56
2023-03-19T20:51:34.305Z,101873.59
2023-03-19T20:54:08.876Z,101874.56
2023-03-19T20:56:43.039Z,101862.19
2023-03-19T20:59:15.726Z,101858.19
2023-03-19T21:01:48.533Z,101866.78
2023-03-19T21:04:21.570Z,101863.13
2023-03-19T21:06:54.515Z,101863.47
2023-03-19T21:09:28.797Z,101855.88
2023-03-19T21:12:01.477Z,101863.56
2023-03-19T21:14:34.799Z,101860.94
2023-03-19T21:17:07.577Z,101854.22
2023-03-19T21:19:42.685Z,101861.09
2023-03-19T21:22:17.778Z,101862.88
2023-03-19T21:24:54.394Z,101863.09
2023-03-19T21:27:28.873Z,101862.88
2023-03-19T21:30:05.311Z,101861.09
2023-03-19T21:32:38.093Z,101863.13
2023-03-19T21:35:17.565Z,101868.97
2023-03-19T21:37:52.358Z,101865.31
2023-03-19T21:40:31.564Z,101870.56
2023-03-19T21:43:05.000Z,101872.50
2023-03-19T21:45:38.040Z,101875.16
2023-03-19T21:48:24.303Z,101866.00
2023-03-19T21:50:57.996Z,101858.66
2023-03-19T21:53:31.169Z,101863.38
2023-03-19T21:56:05.512Z,101869.41
2023-03-19T21:58:38.172Z,101869.47
2023-03-19T22:01:18.011Z,101868.19
2023-03-19T22:03:51.586Z,101872.31
2023-03-19T22:06:24.971Z,101875.06
2023-03-19T22:08:57.697Z,101876.66
2023-03-19T22:11:34.491Z,101889.81
2023-03-19T22:14:13.087Z,101887.19
2023-03-19T22:16:46.486Z,101883.53
2023-03-19T22:19:19.230Z,101891.53
2023-03-19T22:21:51.956Z,101894.28
2023-03-19T22:24:24.698Z,101901.59
2023-03-19T22:26:59.131Z,101901.78
2023-03-19T22:29:34.003Z,101893.63
2023-03-19T22:32:10.618Z,101901.88
2023-03-19T22:34:43.619Z,101903.94
2023-03-19T22:37:24.534Z,101897.31
2023-03-19T22:39:57.416Z,101900.84
2023-03-19T22:42:31.362Z,101909.31
2023-03-19T22:45:04.351Z,101904.97
2023-03-19T22:47:38.811Z,101908.06
2023-03-19T22:50:18.485Z,101903.28
2023-03-19T22:52:51.853Z,101906.59
2023-03-19T22:55:25.124Z,101909.78
2023-03-19T22:57:59.285Z,101913.09
2023-03-19T23:00:31.998Z,101909.00
2023-03-19T23:03:06.887Z,101904.75
2023-03-19T23:05:42.257Z,101910.81
2023-03-19T23:08:18.009Z,101910.81
2023-03-19T23:10:53.420Z,101905.56
2023-03-19T23:13:27.512Z,101910.25
2023-03-19T23:16:02.427Z,101895.28
2023-03-19T23:18:37.597Z,101901.09
2023-03-19T23:21:14.469Z,101896.88
2023-03-19T23:23:47.712Z,101897.41
2023-03-19T23:26:26.658Z,101899.28
2023-03-19T23:29:07.999Z,101883.59
2023-03-19T23:31:40.691Z,101889.78
2023-03-19T23:34:13.614Z,101878.13
2023-03-19T23:36:46.245Z,101876.09
2023-03-19T23:39:19.543Z,101879.50
2023-03-19T23:41:56.911Z,101873.78
2023-03-19T23:44:31.194Z,101873.78
2023-03-19T23:47:03.980Z,101863.25
2023-03-19T23:49:36.935Z,101863.25
2023-03-19T23:52:14.279Z,101862.38
2023-03-19T23:54:47.596Z,101854.50
2023-03-19T23:57:21.905Z,101856.66
2023-03-19T23:59:56.760Z,101862.84
